createdAt,value
2022-09-16T00:03:35.741Z,95
2022-09-16T00:08:34.891Z,95
2022-09-16T00:13:35.197Z,95
2022-09-16T00:18:35.486Z,95
2022-09-16T00:23:35.581Z,95
2022-09-16T00:28:35.649Z,95
2022-09-16T00:33:35.712Z,95
2022-09-16T00:38:34.950Z,95
2022-09-16T00:43:34.987Z,95
2022-09-16T00:48:35.111Z,95
2022-09-16T00:53:38.419Z,95
2022-09-16T00:58:35.305Z,95
2022-09-16T01:03:35.507Z,96
2022-09-16T01:08:35.726Z,96
2022-09-16T01:13:34.813Z,96
2022-09-16T01:18:35.018Z,96
2022-09-16T01:23:35.358Z,96
2022-09-16T01:28:35.474Z,96
2022-09-16T01:33:35.658Z,96
2022-09-16T01:38:35.819Z,96
2022-09-16T01:43:35.237Z,96
2022-09-16T01:48:35.469Z,96
2022-09-16T01:53:34.845Z,96
2022-09-16T01:58:35.056Z,96
2022-09-16T02:03:35.132Z,96
2022-09-16T02:08:35.358Z,96
2022-09-16T02:13:35.569Z,96
2022-09-16T02:18:35.714Z,96
2022-09-16T02:23:34.873Z,96
2022-09-16T02:28:35.294Z,96
2022-09-16T02:33:35.491Z,96
2022-09-16T02:38:35.967Z,96
2022-09-16T02:43:35.490Z,96
2022-09-16T02:48:36.019Z,96
2022-09-16T02:53:35.529Z,96
2022-09-16T02:58:35.367Z,96
2022-09-16T03:03:35.646Z,96
2022-09-16T03:08:35.652Z,96
2022-09-16T03:13:35.015Z,97
2022-09-16T03:18:35.635Z,97
2022-09-16T03:23:34.998Z,97
2022-09-16T03:28:35.087Z,97
2022-09-16T03:33:35.525Z,97
2022-09-16T03:38:35.306Z,97
2022-09-16T03:43:35.765Z,97
2022-09-16T03:48:35.154Z,97
2022-09-16T03:53:35.662Z,97
2022-09-16T03:58:35.948Z,97
2022-09-16T04:03:35.849Z,97
2022-09-16T04:08:35.332Z,97
2022-09-16T04:13:35.627Z,97
2022-09-16T04:18:35.805Z,97
2022-09-16T04:23:35.399Z,97
2022-09-16T04:28:35.680Z,97
2022-09-16T04:33:35.615Z,97
2022-09-16T04:38:35.935Z,97
2022-09-16T04:43:35.113Z,97
2022-09-16T04:48:35.528Z,97
2022-09-16T04:53:35.806Z,97
2022-09-16T04:58:35.226Z,97
2022-09-16T05:03:35.846Z,97
2022-09-16T05:08:35.405Z,97
2022-09-16T05:13:35.123Z,97
2022-09-16T05:18:35.269Z,97
2022-09-16T05:23:35.476Z,97
2022-09-16T05:28:35.077Z,97
2022-09-16T05:33:35.224Z,97
2022-09-16T05:38:35.279Z,97
2022-09-16T05:43:35.430Z,97
2022-09-16T05:48:35.337Z,97
2022-09-16T05:53:35.605Z,97
2022-09-16T05:58:35.782Z,97
2022-09-16T06:03:34.985Z,98
2022-09-16T06:08:35.126Z,98
2022-09-16T06:13:35.173Z,98
2022-09-16T06:18:35.515Z,98
2022-09-16T06:23:35.741Z,98
2022-09-16T06:28:35.908Z,98
2022-09-16T06:33:35.099Z,98
2022-09-16T06:38:35.351Z,98
2022-09-16T06:43:35.580Z,98
2022-09-16T06:48:35.854Z,98
2022-09-16T06:53:36.008Z,98
2022-09-16T06:58:35.605Z,98
2022-09-16T07:03:36.024Z,98
2022-09-16T07:08:35.383Z,98
2022-09-16T07:13:35.622Z,98
2022-09-16T07:18:35.687Z,98
2022-09-16T07:23:35.113Z,98
2022-09-16T07:28:35.272Z,98
2022-09-16T07:33:35.502Z,98
2022-09-16T07:38:35.744Z,98
2022-09-16T07:43:35.885Z,98
2022-09-16T07:48:35.534Z,98
2022-09-16T07:53:35.970Z,98
2022-09-16T07:58:35.169Z,98
2022-09-16T08:03:35.264Z,97
2022-09-16T08:08:35.471Z,97
2022-09-16T08:13:35.935Z,97
2022-09-16T08:18:35.205Z,97
2022-09-16T08:23:35.501Z,96
2022-09-16T08:28:45.384Z,96
2022-09-16T08:33:35.779Z,94
2022-09-16T08:38:35.944Z,94
2022-09-16T08:43:35.583Z,91
2022-09-16T08:48:36.016Z,91
2022-09-16T08:53:35.377Z,87
2022-09-16T08:58:35.149Z,87
2022-09-16T09:03:35.311Z,84
2022-09-16T09:08:35.323Z,84
2022-09-16T09:13:35.464Z,82
2022-09-16T09:18:35.898Z,82
2022-09-16T09:23:35.564Z,82
2022-09-16T09:28:35.931Z,82
2022-09-16T09:33:46.223Z,84
2022-09-16T09:38:36.098Z,84
2022-09-16T09:43:36.113Z,84
2022-09-16T09:48:35.525Z,84
2022-09-16T09:53:35.872Z,81
2022-09-16T09:58:36.033Z,81
2022-09-16T10:03:35.948Z,79
2022-09-16T10:08:35.875Z,79
2022-09-16T10:13:35.287Z,77
2022-09-16T10:18:35.682Z,77
2022-09-16T10:23:35.966Z,74
2022-09-16T10:28:35.325Z,74
2022-09-16T10:33:35.786Z,74
2022-09-16T10:38:35.960Z,74
2022-09-16T10:43:35.554Z,72
2022-09-16T10:48:35.841Z,72
2022-09-16T10:53:39.228Z,71
2022-09-16T10:58:35.904Z,71
2022-09-16T11:03:36.143Z,71
2022-09-16T11:08:35.621Z,71
2022-09-16T11:13:35.797Z,71
2022-09-16T11:18:35.913Z,71
2022-09-16T11:23:36.104Z,70
2022-09-16T11:28:35.487Z,70
2022-09-16T11:33:35.673Z,69
2022-09-16T11:38:36.118Z,69
2022-09-16T11:43:35.367Z,68
2022-09-16T11:48:35.865Z,68
2022-09-16T11:53:39.197Z,68
2022-09-16T11:58:35.889Z,68
2022-09-16T12:03:35.945Z,74
2022-09-16T12:08:36.156Z,74
2022-09-16T12:13:35.304Z,79
2022-09-16T12:18:35.359Z,79
2022-09-16T12:23:35.865Z,81
2022-09-16T12:28:36.054Z,81
2022-09-16T12:33:35.316Z,79
2022-09-16T12:38:35.485Z,79
2022-09-16T12:43:35.453Z,74
2022-09-16T12:48:35.777Z,74
2022-09-16T12:53:36.081Z,75
2022-09-16T12:58:36.173Z,75
2022-09-16T13:08:35.656Z,81
2022-09-16T13:13:35.968Z,84
2022-09-16T13:18:36.121Z,84
2022-09-16T13:23:35.481Z,86
2022-09-16T13:28:35.632Z,86
2022-09-16T13:33:35.806Z,86
2022-09-16T13:38:36.133Z,86
2022-09-16T13:43:35.634Z,87
2022-09-16T13:48:35.841Z,87
2022-09-16T13:53:36.166Z,86
2022-09-16T13:58:35.598Z,86
2022-09-16T14:03:35.940Z,86
2022-09-16T14:08:36.451Z,86
2022-09-16T14:13:36.089Z,86
2022-09-16T14:18:35.317Z,86
2022-09-16T14:23:35.483Z,87
2022-09-16T14:28:38.701Z,87
2022-09-16T14:33:35.992Z,88
2022-09-16T14:39:07.086Z,88
2022-09-16T14:43:35.464Z,88
2022-09-16T14:48:35.807Z,88
2022-09-16T14:53:37.508Z,89
2022-09-16T14:58:36.013Z,89
2022-09-16T15:03:35.703Z,90
2022-09-16T15:08:35.974Z,90
2022-09-16T15:13:35.908Z,92
2022-09-16T15:18:35.476Z,92
2022-09-16T15:23:35.635Z,93
2022-09-16T15:28:36.359Z,93
2022-09-16T15:33:35.861Z,94
2022-09-16T15:38:35.466Z,94
2022-09-16T15:43:35.944Z,94
2022-09-16T15:48:35.889Z,94
2022-09-16T15:53:35.430Z,95
2022-09-16T15:58:35.926Z,95
2022-09-16T16:03:36.082Z,95
2022-09-16T16:08:35.516Z,95
2022-09-16T16:13:35.663Z,96
2022-09-16T16:18:35.925Z,96
2022-09-16T16:23:36.330Z,96
2022-09-16T16:28:35.901Z,96
2022-09-16T16:33:36.084Z,97
2022-09-16T16:38:35.462Z,97
2022-09-16T16:43:35.811Z,97
2022-09-16T16:48:36.115Z,97
2022-09-16T16:53:35.585Z,97
2022-09-16T16:58:35.767Z,97
2022-09-16T17:03:36.037Z,97
2022-09-16T17:08:35.723Z,97
2022-09-16T17:13:35.808Z,97
2022-09-16T17:18:35.945Z,97
2022-09-16T17:23:36.204Z,97
2022-09-16T17:28:35.410Z,97
2022-09-16T17:33:35.587Z,97
2022-09-16T17:38:35.889Z,97
2022-09-16T17:43:35.969Z,97
2022-09-16T17:48:36.529Z,97
2022-09-16T17:53:35.784Z,98
2022-09-16T17:58:36.113Z,98
2022-09-16T18:03:36.132Z,98
2022-09-16T18:08:36.510Z,98
2022-09-16T18:13:35.945Z,98
2022-09-16T18:18:36.207Z,98
2022-09-16T18:23:35.443Z,98
2022-09-16T18:28:58.301Z,98
2022-09-16T18:33:36.119Z,98
2022-09-16T18:38:36.241Z,98
2022-09-16T18:43:35.430Z,98
2022-09-16T18:48:35.761Z,98
2022-09-16T18:53:36.011Z,98
2022-09-16T18:58:36.396Z,98
2022-09-16T19:03:35.783Z,98
2022-09-16T19:08:36.024Z,98
2022-09-16T19:13:36.153Z,98
2022-09-16T19:18:36.415Z,98
2022-09-16T19:23:35.622Z,98
2022-09-16T19:28:35.602Z,98
2022-09-16T19:33:35.798Z,98
2022-09-16T19:38:36.148Z,98
2022-09-16T19:43:36.681Z,98
2022-09-16T19:48:35.786Z,98
2022-09-16T19:53:36.058Z,98
2022-09-16T19:58:36.080Z,98
2022-09-16T20:03:36.220Z,98
2022-09-16T20:08:36.442Z,98
2022-09-16T20:13:35.779Z,98
2022-09-16T20:18:35.948Z,98
2022-09-16T20:23:36.217Z,98
2022-09-16T20:28:36.088Z,98
2022-09-16T20:33:36.318Z,98
2022-09-16T20:38:35.539Z,98
2022-09-16T20:43:35.943Z,98
2022-09-16T20:48:36.157Z,98
2022-09-16T20:53:36.295Z,98
2022-09-16T20:58:35.862Z,98
2022-09-16T21:03:35.665Z,98
2022-09-16T21:08:36.484Z,98
2022-09-16T21:13:36.185Z,98
2022-09-16T21:18:36.477Z,98
2022-09-16T21:23:35.886Z,98
2022-09-16T21:28:36.269Z,98
2022-09-16T21:33:35.674Z,98
2022-09-16T21:38:36.050Z,98
2022-09-16T21:43:36.532Z,98
2022-09-16T21:48:35.730Z,98
2022-09-16T21:53:35.897Z,98
2022-09-16T21:58:36.221Z,98
2022-09-16T22:03:36.338Z,98
2022-09-16T22:08:35.740Z,98
2022-09-16T22:13:36.017Z,98
2022-09-16T22:18:36.166Z,98
2022-09-16T22:23:36.574Z,98
2022-09-16T22:28:36.241Z,98
2022-09-16T22:33:36.375Z,98
2022-09-16T22:38:35.915Z,98
2022-09-16T22:43:36.065Z,98
2022-09-16T22:48:36.469Z,98
2022-09-16T22:53:35.776Z,98
2022-09-16T22:58:35.874Z,98
2022-09-16T23:03:36.247Z,98
2022-09-16T23:08:35.947Z,98
2022-09-16T23:13:36.337Z,98
2022-09-16T23:18:35.678Z,98
2022-09-16T23:23:35.785Z,98
2022-09-16T23:28:35.984Z,98
2022-09-16T23:33:36.197Z,98
2022-09-16T23:38:36.366Z,98
2022-09-16T23:43:35.742Z,98
2022-09-16T23:48:35.951Z,98
2022-09-16T23:53:36.163Z,98
2022-09-16T23:58:36.361Z,98
